createdAt,value
2023-03-24T00:01:29.527Z,70.19
2023-03-24T00:03:56.142Z,69.77
2023-03-24T00:06:23.035Z,69.82
2023-03-24T00:08:49.781Z,69.59
2023-03-24T00:11:18.709Z,69.79
2023-03-24T00:13:47.235Z,69.95
2023-03-24T00:16:16.901Z,70.38
2023-03-24T00:18:43.735Z,70.39
2023-03-24T00:21:11.688Z,70.20
2023-03-24T00:23:38.830Z,70.50
2023-03-24T00:26:12.296Z,70.72
2023-03-24T00:28:39.180Z,71.31
2023-03-24T00:31:06.378Z,71.50
2023-03-24T00:33:35.115Z,71.46
2023-03-24T00:36:06.971Z,71.78
2023-03-24T00:38:34.768Z,72.20
2023-03-24T00:41:01.917Z,72.36
2023-03-24T00:43:28.878Z,72.80
2023-03-24T00:46:01.235Z,73.27
2023-03-24T00:48:28.400Z,73.68
2023-03-24T00:50:55.597Z,74.01
2023-03-24T00:53:31.820Z,74.21
2023-03-24T00:55:58.667Z,73.70
2023-03-24T00:58:25.520Z,73.71
2023-03-24T01:00:54.599Z,73.78
2023-03-24T01:03:28.133Z,73.68
2023-03-24T01:05:57.738Z,73.96
2023-03-24T01:08:25.717Z,74.07
2023-03-24T01:10:55.733Z,73.20
2023-03-24T01:13:24.034Z,73.89
2023-03-24T01:15:50.813Z,73.71
2023-03-24T01:18:17.824Z,73.78
2023-03-24T01:20:45.844Z,74.93
2023-03-24T01:23:14.563Z,75.60
2023-03-24T01:25:45.279Z,75.50
2023-03-24T01:28:12.951Z,75.31
2023-03-24T01:30:39.672Z,75.12
2023-03-24T01:33:06.739Z,74.59
2023-03-24T01:35:33.798Z,74.71
2023-03-24T01:38:00.814Z,74.51
2023-03-24T01:40:31.685Z,74.28
2023-03-24T01:42:58.919Z,74.49
2023-03-24T01:45:44.218Z,74.79
2023-03-24T01:48:29.667Z,74.56
2023-03-24T01:51:15.687Z,74.11
2023-03-24T01:53:46.809Z,73.75
2023-03-24T01:56:13.907Z,74.03
2023-03-24T01:58:46.108Z,74.10
2023-03-24T02:01:19.816Z,74.52
2023-03-24T02:03:58.901Z,74.65
2023-03-24T02:06:26.234Z,74.47
2023-03-24T02:08:56.541Z,74.63
2023-03-24T02:11:28.327Z,75.04
2023-03-24T02:13:59.290Z,75.21
2023-03-24T02:16:38.272Z,75.39
2023-03-24T02:19:26.444Z,76.05
2023-03-24T02:22:12.511Z,76.36
2023-03-24T02:24:55.174Z,76.32
2023-03-24T02:27:27.502Z,76.77
2023-03-24T02:30:14.324Z,77.06
2023-03-24T02:32:59.841Z,77.75
2023-03-24T02:35:41.547Z,77.65
2023-03-24T02:38:18.691Z,77.70
2023-03-24T02:40:45.900Z,77.38
2023-03-24T02:43:13.254Z,77.11
2023-03-24T02:45:46.001Z,76.59
2023-03-24T02:48:27.737Z,76.11
2023-03-24T02:51:00.743Z,75.66
2023-03-24T02:53:35.825Z,75.44
2023-03-24T02:56:37.428Z,74.96
2023-03-24T02:59:27.193Z,74.78
2023-03-24T03:02:00.657Z,74.49
2023-03-24T03:04:39.894Z,74.31
2023-03-24T03:07:12.925Z,74.20
2023-03-24T03:09:41.857Z,73.78
2023-03-24T03:12:10.175Z,73.75
2023-03-24T03:14:49.776Z,73.84
2023-03-24T03:17:19.282Z,73.73
2023-03-24T03:19:50.455Z,73.73
2023-03-24T03:22:21.055Z,73.70
2023-03-24T03:24:53.103Z,73.47
2023-03-24T03:27:22.194Z,73.86
2023-03-24T03:29:54.286Z,73.88
2023-03-24T03:32:24.884Z,73.59
2023-03-24T03:35:10.178Z,73.33
2023-03-24T03:37:44.890Z,72.93
2023-03-24T03:40:15.431Z,72.11
2023-03-24T03:42:46.961Z,72.16
2023-03-24T03:45:14.567Z,72.06
2023-03-24T03:47:41.701Z,72.30
2023-03-24T03:50:08.900Z,72.22
2023-03-24T03:52:37.531Z,72.13
2023-03-24T03:55:04.916Z,71.91
2023-03-24T03:57:31.844Z,71.72
2023-03-24T04:00:28.440Z,71.61
2023-03-24T04:03:25.286Z,72.36
2023-03-24T04:05:51.926Z,73.00
2023-03-24T04:08:38.703Z,73.15
2023-03-24T04:11:31.905Z,73.23
2023-03-24T04:14:18.724Z,73.20
2023-03-24T04:17:04.992Z,73.23
2023-03-24T04:19:43.452Z,73.14
2023-03-24T04:22:14.116Z,72.90
2023-03-24T04:24:50.047Z,72.75
2023-03-24T04:27:30.135Z,72.51
2023-03-24T04:30:23.096Z,72.30
2023-03-24T04:33:03.720Z,72.20
2023-03-24T04:35:36.526Z,72.22
2023-03-24T04:38:17.198Z,72.43
2023-03-24T04:40:49.647Z,72.67
2023-03-24T04:43:19.556Z,72.88
2023-03-24T04:45:49.992Z,72.72
2023-03-24T04:48:35.680Z,72.30
2023-03-24T04:51:19.177Z,72.04
2023-03-24T04:54:00.994Z,71.89
2023-03-24T04:56:34.454Z,71.68
2023-03-24T04:59:05.237Z,71.47
2023-03-24T05:01:32.002Z,70.82
2023-03-24T05:04:21.925Z,70.88
2023-03-24T05:06:49.724Z,71.12
2023-03-24T05:09:21.385Z,71.01
2023-03-24T05:11:48.183Z,71.35
2023-03-24T05:14:16.131Z,71.38
2023-03-24T05:16:43.304Z,71.41
2023-03-24T05:19:10.935Z,71.35
2023-03-24T05:21:38.031Z,71.31
2023-03-24T05:24:06.871Z,70.53
2023-03-24T05:26:35.072Z,70.26
2023-03-24T05:29:08.977Z,69.69
2023-03-24T05:31:35.627Z,69.47
2023-03-24T05:34:07.565Z,69.43
2023-03-24T05:36:44.996Z,69.20
2023-03-24T05:39:13.703Z,68.81
2023-03-24T05:41:55.851Z,68.68
2023-03-24T05:44:22.637Z,68.63
2023-03-24T05:47:04.184Z,67.78
2023-03-24T05:49:31.825Z,67.43
2023-03-24T05:52:00.240Z,67.25
2023-03-24T05:54:27.231Z,66.96
2023-03-24T05:57:02.591Z,66.81
2023-03-24T05:59:32.753Z,66.93
2023-03-24T06:02:12.097Z,66.63
2023-03-24T06:04:57.919Z,67.00
2023-03-24T06:07:26.912Z,67.17
2023-03-24T06:09:58.172Z,66.47
2023-03-24T06:12:25.474Z,66.16
2023-03-24T06:14:58.796Z,64.67
2023-03-24T06:17:25.718Z,64.35
2023-03-24T06:20:03.152Z,63.65
2023-03-24T06:22:48.836Z,63.19
2023-03-24T06:25:21.584Z,62.70
2023-03-24T06:28:04.370Z,62.96
2023-03-24T06:30:32.481Z,62.20
2023-03-24T06:32:59.215Z,61.75
2023-03-24T06:35:25.923Z,62.27
2023-03-24T06:37:59.992Z,62.30
2023-03-24T06:40:26.672Z,62.66
2023-03-24T06:42:57.340Z,62.00
2023-03-24T06:45:24.336Z,61.63
2023-03-24T06:47:56.167Z,61.93
2023-03-24T06:50:26.854Z,61.11
2023-03-24T06:52:54.478Z,60.23
2023-03-24T06:55:22.424Z,59.97
2023-03-24T06:57:51.930Z,59.20
2023-03-24T07:00:34.850Z,58.91
2023-03-24T07:03:27.662Z,58.96
2023-03-24T07:06:14.479Z,58.28
2023-03-24T07:08:41.993Z,57.85
2023-03-24T07:11:10.248Z,58.32
2023-03-24T07:13:40.528Z,57.25
2023-03-24T07:16:08.433Z,57.20
2023-03-24T07:18:37.960Z,56.67
2023-03-24T07:21:06.283Z,56.14
2023-03-24T07:23:34.782Z,55.76
2023-03-24T07:26:21.935Z,55.99
2023-03-24T07:28:49.092Z,56.64
2023-03-24T07:31:38.220Z,56.19
2023-03-24T07:34:08.355Z,56.27
2023-03-24T07:36:36.956Z,56.24
2023-03-24T07:39:06.859Z,54.92
2023-03-24T07:41:36.244Z,55.73
2023-03-24T07:44:08.761Z,54.00
2023-03-24T07:46:41.238Z,54.00
2023-03-24T07:49:19.015Z,54.15
2023-03-24T07:51:54.922Z,53.29
2023-03-24T07:54:39.788Z,52.74
2023-03-24T07:57:08.962Z,51.80
2023-03-24T07:59:38.107Z,51.57
2023-03-24T08:02:19.365Z,49.89
2023-03-24T08:05:00.085Z,50.67
2023-03-24T08:07:44.152Z,50.31
2023-03-24T08:10:12.513Z,51.22
2023-03-24T08:12:39.094Z,50.12
2023-03-24T08:15:07.540Z,50.70
2023-03-24T08:17:34.491Z,50.64
2023-03-24T08:20:03.392Z,50.96
2023-03-24T08:22:32.236Z,50.67
2023-03-24T08:24:58.815Z,50.53
2023-03-24T08:27:25.395Z,52.03
2023-03-24T08:29:52.178Z,50.35
2023-03-24T08:32:18.720Z,51.01
2023-03-24T08:34:45.307Z,51.80
2023-03-24T08:37:12.163Z,51.16
2023-03-24T08:39:38.770Z,50.59
2023-03-24T08:42:05.618Z,50.30
2023-03-24T08:44:33.845Z,51.41
2023-03-24T08:47:00.868Z,51.29
2023-03-24T08:49:27.449Z,50.87
2023-03-24T08:51:54.054Z,50.25
2023-03-24T08:54:23.353Z,49.88
2023-03-24T08:56:51.036Z,50.80
2023-03-24T08:59:17.964Z,50.08
2023-03-24T09:01:45.232Z,50.29
2023-03-24T09:04:11.963Z,49.26
2023-03-24T09:06:38.634Z,49.96
2023-03-24T09:09:05.343Z,48.48
2023-03-24T09:11:31.956Z,49.10
2023-03-24T09:13:59.118Z,48.86
2023-03-24T09:16:26.745Z,49.51
2023-03-24T09:18:53.420Z,50.10
2023-03-24T09:21:19.978Z,48.66
2023-03-24T09:23:46.954Z,48.08
2023-03-24T09:26:13.592Z,48.48
2023-03-24T09:28:40.244Z,48.61
2023-03-24T09:31:06.869Z,48.44
2023-03-24T09:33:35.022Z,49.26
2023-03-24T09:36:02.359Z,48.06
2023-03-24T09:38:29.303Z,48.58
2023-03-24T09:40:58.033Z,48.46
2023-03-24T09:43:24.666Z,48.11
2023-03-24T09:45:52.845Z,49.52
2023-03-24T09:48:22.608Z,48.04
2023-03-24T09:50:56.776Z,48.45
2023-03-24T09:53:42.072Z,48.17
2023-03-24T09:56:12.839Z,49.46
2023-03-24T09:58:41.682Z,48.73
2023-03-24T10:01:12.750Z,49.15
2023-03-24T10:03:39.619Z,49.69
2023-03-24T10:06:11.681Z,48.02
2023-03-24T10:08:38.395Z,48.43
2023-03-24T10:11:10.968Z,48.16
2023-03-24T10:14:09.945Z,47.53
2023-03-24T10:16:36.561Z,47.98
2023-03-24T10:19:06.088Z,47.24
2023-03-24T10:21:35.964Z,46.87
2023-03-24T10:24:10.243Z,47.78
2023-03-24T10:26:36.807Z,47.74
2023-03-24T10:29:04.653Z,47.26
2023-03-24T10:31:32.869Z,47.47
2023-03-24T10:33:59.610Z,47.00
2023-03-24T10:36:26.435Z,47.21
2023-03-24T10:38:53.252Z,47.35
2023-03-24T10:41:21.758Z,46.77
2023-03-24T10:43:50.420Z,48.11
2023-03-24T10:46:18.399Z,48.77
2023-03-24T10:48:46.920Z,46.79
2023-03-24T10:51:21.413Z,46.26
2023-03-24T10:53:48.919Z,46.15
2023-03-24T10:56:16.396Z,46.25
2023-03-24T10:58:43.941Z,45.81
2023-03-24T11:01:30.887Z,46.82
2023-03-24T11:04:03.624Z,46.66
2023-03-24T11:06:31.294Z,46.87
2023-03-24T11:09:08.765Z,46.13
2023-03-24T11:11:35.740Z,46.25
2023-03-24T11:14:02.891Z,47.37
2023-03-24T11:16:31.286Z,45.82
2023-03-24T11:18:59.148Z,46.30
2023-03-24T11:21:27.617Z,47.05
2023-03-24T11:23:57.530Z,47.52
2023-03-24T11:26:35.725Z,46.36
2023-03-24T11:29:07.899Z,46.50
2023-03-24T11:31:38.361Z,46.14
2023-03-24T11:34:24.975Z,47.10
2023-03-24T11:36:51.719Z,47.76
2023-03-24T11:39:20.175Z,48.03
2023-03-24T11:42:01.886Z,46.05
2023-03-24T11:44:30.939Z,46.94
2023-03-24T11:46:58.796Z,45.63
2023-03-24T11:49:33.236Z,45.55
2023-03-24T11:52:00.308Z,45.25
2023-03-24T11:54:36.859Z,44.40
2023-03-24T11:57:05.843Z,44.68
2023-03-24T11:59:32.681Z,42.75
2023-03-24T12:01:59.265Z,43.46
2023-03-24T12:04:34.451Z,44.52
2023-03-24T12:07:01.369Z,43.27
2023-03-24T12:09:32.340Z,43.88
2023-03-24T12:12:07.764Z,43.65
2023-03-24T12:14:52.952Z,43.70
2023-03-24T12:17:41.936Z,42.87
2023-03-24T12:20:08.620Z,43.09
2023-03-24T12:22:39.282Z,43.35
2023-03-24T12:25:12.203Z,43.42
2023-03-24T12:27:59.780Z,44.21
2023-03-24T12:30:26.726Z,44.22
2023-03-24T12:33:05.755Z,43.35
2023-03-24T12:35:39.659Z,44.12
2023-03-24T12:38:25.978Z,43.13
2023-03-24T12:41:11.314Z,43.91
2023-03-24T12:43:43.400Z,43.56
2023-03-24T12:46:21.021Z,43.72
2023-03-24T12:49:03.190Z,42.54
2023-03-24T12:51:44.814Z,43.46
2023-03-24T12:54:29.994Z,43.21
2023-03-24T12:57:02.133Z,42.85
2023-03-24T12:59:28.730Z,42.77
2023-03-24T13:02:01.496Z,43.38
2023-03-24T13:04:33.836Z,43.60
2023-03-24T13:07:05.288Z,42.98
2023-03-24T13:09:40.116Z,44.83
2023-03-24T13:12:15.347Z,44.99
2023-03-24T13:15:00.633Z,44.81
2023-03-24T13:17:32.484Z,44.09
2023-03-24T13:20:00.692Z,43.38
2023-03-24T13:22:27.742Z,43.93
2023-03-24T13:24:55.063Z,43.29
2023-03-24T13:27:26.814Z,42.91
2023-03-24T13:29:59.533Z,45.24
2023-03-24T13:32:32.123Z,44.21
2023-03-24T13:35:01.680Z,44.54
2023-03-24T13:37:49.906Z,44.17
2023-03-24T13:40:38.267Z,45.05
2023-03-24T13:43:12.022Z,44.85
2023-03-24T13:45:44.348Z,44.54
2023-03-24T13:48:11.111Z,44.09
2023-03-24T13:50:39.451Z,44.80
2023-03-24T13:53:07.514Z,44.75
2023-03-24T13:55:36.987Z,44.91
2023-03-24T13:58:15.014Z,43.83
2023-03-24T14:01:08.091Z,44.88
2023-03-24T14:03:45.430Z,44.63
2023-03-24T14:06:16.695Z,45.10
2023-03-24T14:08:54.048Z,44.68
2023-03-24T14:11:34.119Z,45.70
2023-03-24T14:14:16.406Z,44.76
2023-03-24T14:16:49.005Z,43.83
2023-03-24T14:19:19.993Z,46.02
2023-03-24T14:21:52.670Z,45.03
2023-03-24T14:24:26.735Z,45.53
2023-03-24T14:26:53.568Z,44.57
2023-03-24T14:29:35.617Z,44.90
2023-03-24T14:32:17.204Z,44.72
2023-03-24T14:34:58.050Z,43.99
2023-03-24T14:37:25.836Z,44.75
2023-03-24T14:39:52.867Z,46.15
2023-03-24T14:42:31.679Z,46.55
2023-03-24T14:44:59.580Z,47.63
2023-03-24T14:47:29.939Z,46.37
2023-03-24T14:49:57.281Z,46.85
2023-03-24T14:52:25.609Z,47.27
2023-03-24T14:54:59.832Z,46.73
2023-03-24T14:57:26.919Z,45.90
2023-03-24T15:00:12.355Z,46.71
2023-03-24T15:02:43.676Z,46.38
2023-03-24T15:05:23.084Z,45.88
2023-03-24T15:08:05.665Z,46.18
2023-03-24T15:10:51.573Z,46.17
2023-03-24T15:13:27.407Z,46.24
2023-03-24T15:15:54.129Z,46.40
2023-03-24T15:18:22.511Z,46.72
2023-03-24T15:20:50.057Z,48.46
2023-03-24T15:23:21.445Z,49.30
2023-03-24T15:25:48.097Z,50.33
2023-03-24T15:28:21.645Z,51.32
2023-03-24T15:30:49.311Z,51.38
2023-03-24T15:33:17.131Z,51.36
2023-03-24T15:35:44.908Z,53.05
2023-03-24T15:38:18.135Z,54.58
2023-03-24T15:40:52.486Z,53.66
2023-03-24T15:43:20.354Z,51.90
2023-03-24T15:45:57.844Z,52.20
2023-03-24T15:48:31.563Z,51.61
2023-03-24T15:50:58.202Z,51.70
2023-03-24T15:53:27.415Z,52.33
2023-03-24T15:56:04.241Z,53.00
2023-03-24T15:58:45.715Z,53.23
2023-03-24T16:01:14.521Z,53.81
2023-03-24T16:03:42.332Z,54.62
2023-03-24T16:06:13.980Z,55.19
2023-03-24T16:08:41.838Z,57.38
2023-03-24T16:11:12.088Z,60.43
2023-03-24T16:13:42.594Z,63.84
2023-03-24T16:16:15.724Z,66.12
2023-03-24T16:18:43.461Z,67.62
2023-03-24T16:21:19.364Z,68.89
2023-03-24T16:23:46.650Z,70.05
2023-03-24T16:26:17.198Z,71.15
2023-03-24T16:28:43.995Z,71.32
2023-03-24T16:31:27.373Z,71.65
2023-03-24T16:33:56.010Z,72.18
2023-03-24T16:36:26.750Z,72.49
2023-03-24T16:38:54.032Z,73.25
2023-03-24T16:41:20.990Z,72.88
2023-03-24T16:43:47.925Z,72.33
2023-03-24T16:46:16.241Z,72.43
2023-03-24T16:48:43.460Z,71.95
2023-03-24T16:51:14.853Z,72.12
2023-03-24T16:53:42.042Z,74.23
2023-03-24T16:56:09.450Z,74.84
2023-03-24T16:58:36.311Z,75.31
2023-03-24T17:01:03.198Z,75.53
2023-03-24T17:03:29.981Z,75.37
2023-03-24T17:05:57.827Z,75.54
2023-03-24T17:08:24.471Z,76.12
2023-03-24T17:10:52.169Z,76.55
2023-03-24T17:13:22.809Z,77.87
2023-03-24T17:15:49.641Z,78.34
2023-03-24T17:18:16.537Z,79.56
2023-03-24T17:20:43.186Z,80.50
2023-03-24T17:23:11.573Z,80.38
2023-03-24T17:25:38.165Z,80.58
2023-03-24T17:28:06.857Z,81.09
2023-03-24T17:30:33.456Z,82.84
2023-03-24T17:33:00.215Z,84.19
2023-03-24T17:35:26.828Z,85.71
2023-03-24T17:37:53.829Z,86.52
2023-03-24T17:40:20.769Z,89.19
2023-03-24T17:42:47.929Z,90.37
2023-03-24T17:45:16.792Z,90.78
2023-03-24T17:47:43.603Z,91.16
2023-03-24T17:50:11.213Z,91.90
2023-03-24T17:52:41.389Z,93.38
2023-03-24T17:55:08.314Z,93.33
2023-03-24T17:57:34.951Z,92.95
2023-03-24T18:00:01.710Z,92.70
2023-03-24T18:02:34.493Z,92.20
2023-03-24T18:05:01.566Z,94.63
2023-03-24T18:07:28.801Z,93.51
2023-03-24T18:09:55.413Z,95.54
2023-03-24T18:12:22.333Z,96.35
2023-03-24T18:14:49.033Z,96.70
2023-03-24T18:17:15.899Z,96.52
2023-03-24T18:19:42.965Z,97.26
2023-03-24T18:22:09.664Z,98.30
2023-03-24T18:24:36.490Z,100.00
2023-03-24T18:27:04.938Z,100.00
2023-03-24T18:29:32.106Z,99.69
2023-03-24T18:31:58.809Z,99.85
2023-03-24T18:34:26.931Z,100.00
2023-03-24T18:36:53.648Z,100.00
2023-03-24T18:39:20.252Z,100.00
2023-03-24T18:41:48.149Z,100.00
2023-03-24T18:44:15.708Z,100.00
2023-03-24T18:46:42.814Z,100.00
2023-03-24T18:49:14.368Z,100.00
2023-03-24T18:51:42.058Z,100.00
2023-03-24T18:54:09.637Z,100.00
2023-03-24T18:56:36.502Z,100.00
2023-03-24T18:59:03.602Z,100.00
2023-03-24T19:01:30.368Z,100.00
2023-03-24T19:03:57.118Z,100.00
2023-03-24T19:06:26.358Z,100.00
2023-03-24T19:08:53.334Z,100.00
2023-03-24T19:11:20.168Z,100.00
2023-03-24T19:13:49.875Z,100.00
2023-03-24T19:16:17.842Z,100.00
2023-03-24T19:18:45.002Z,100.00
2023-03-24T19:21:12.742Z,100.00
2023-03-24T19:23:39.394Z,100.00
2023-03-24T19:26:06.130Z,100.00
2023-03-24T19:28:35.099Z,100.00
2023-03-24T19:31:07.048Z,100.00
2023-03-24T19:33:33.770Z,100.00
2023-03-24T19:36:00.705Z,100.00
2023-03-24T19:38:28.828Z,100.00
2023-03-24T19:40:56.019Z,100.00
2023-03-24T19:43:23.284Z,100.00
2023-03-24T19:45:53.758Z,100.00
2023-03-24T19:48:20.934Z,100.00
2023-03-24T19:50:50.021Z,100.00
2023-03-24T19:53:16.848Z,100.00
2023-03-24T19:55:43.503Z,100.00
2023-03-24T19:58:10.347Z,100.00
2023-03-24T20:00:37.448Z,100.00
2023-03-24T20:03:04.483Z,100.00
2023-03-24T20:05:31.280Z,100.00
2023-03-24T20:08:00.023Z,100.00
2023-03-24T20:10:27.482Z,100.00
2023-03-24T20:12:54.770Z,100.00
2023-03-24T20:15:22.021Z,100.00
2023-03-24T20:17:48.890Z,100.00
2023-03-24T20:20:15.823Z,100.00
2023-03-24T20:22:46.077Z,100.00
2023-03-24T20:25:14.298Z,100.00
2023-03-24T20:27:41.153Z,100.00
2023-03-24T20:30:08.400Z,100.00
2023-03-24T20:32:35.733Z,100.00
2023-03-24T20:35:05.289Z,100.00
2023-03-24T20:37:35.613Z,100.00
2023-03-24T20:40:06.347Z,100.00
2023-03-24T20:42:33.373Z,100.00
2023-03-24T20:45:00.777Z,100.00
2023-03-24T20:47:27.394Z,100.00
2023-03-24T20:49:54.120Z,100.00
2023-03-24T20:52:23.065Z,100.00
2023-03-24T20:54:50.671Z,100.00
2023-03-24T20:57:17.733Z,100.00
2023-03-24T20:59:44.357Z,100.00
2023-03-24T21:02:11.185Z,100.00
2023-03-24T21:04:37.852Z,100.00
2023-03-24T21:07:04.461Z,100.00
2023-03-24T21:09:31.077Z,100.00
2023-03-24T21:11:57.659Z,100.00
2023-03-24T21:14:24.602Z,100.00
2023-03-24T21:16:51.692Z,100.00
2023-03-24T21:19:18.762Z,100.00
2023-03-24T21:21:49.416Z,100.00
2023-03-24T21:24:17.082Z,100.00
2023-03-24T21:26:46.250Z,100.00
2023-03-24T21:29:13.130Z,100.00
2023-03-24T21:31:41.777Z,100.00
2023-03-24T21:34:08.541Z,100.00
2023-03-24T21:36:35.568Z,100.00
2023-03-24T21:39:06.106Z,100.00
2023-03-24T21:41:34.107Z,100.00
2023-03-24T21:44:00.963Z,100.00
2023-03-24T21:46:28.065Z,100.00
2023-03-24T21:48:55.884Z,100.00
2023-03-24T21:51:24.166Z,100.00
2023-03-24T21:53:51.852Z,100.00
2023-03-24T21:56:20.381Z,100.00
2023-03-24T21:58:47.217Z,100.00
2023-03-24T22:01:14.045Z,100.00
2023-03-24T22:03:40.765Z,100.00
2023-03-24T22:06:10.572Z,100.00
2023-03-24T22:08:39.004Z,100.00
2023-03-24T22:11:05.835Z,100.00
2023-03-24T22:13:33.305Z,100.00
2023-03-24T22:16:01.444Z,99.79
2023-03-24T22:18:30.514Z,99.24
2023-03-24T22:21:01.174Z,97.90
2023-03-24T22:23:32.847Z,93.00
2023-03-24T22:26:01.843Z,90.97
2023-03-24T22:28:29.221Z,86.86
2023-03-24T22:31:02.506Z,85.23
2023-03-24T22:33:29.325Z,85.01
2023-03-24T22:35:56.894Z,84.30
2023-03-24T22:38:23.798Z,81.74
2023-03-24T22:40:50.659Z,81.31
2023-03-24T22:43:17.804Z,79.17
2023-03-24T22:45:44.777Z,79.36
2023-03-24T22:48:11.474Z,79.39
2023-03-24T22:50:39.515Z,79.99
2023-03-24T22:53:06.156Z,81.05
2023-03-24T22:55:32.805Z,80.06
2023-03-24T22:57:59.476Z,80.32
2023-03-24T23:00:26.209Z,81.14
2023-03-24T23:02:52.876Z,81.10
2023-03-24T23:05:19.536Z,81.28
2023-03-24T23:07:47.498Z,81.12
2023-03-24T23:10:14.685Z,80.06
2023-03-24T23:12:43.968Z,79.88
2023-03-24T23:15:13.930Z,80.28
2023-03-24T23:17:42.615Z,81.52
2023-03-24T23:20:10.637Z,81.54
2023-03-24T23:22:38.491Z,81.28
2023-03-24T23:25:06.008Z,81.28
2023-03-24T23:27:33.500Z,80.44
2023-03-24T23:30:00.160Z,78.90
2023-03-24T23:32:26.926Z,78.46
2023-03-24T23:34:53.901Z,76.37
2023-03-24T23:37:20.485Z,74.79
2023-03-24T23:39:50.267Z,73.54
2023-03-24T23:42:17.280Z,69.37
2023-03-24T23:44:43.821Z,68.99
2023-03-24T23:47:10.551Z,66.58
2023-03-24T23:49:37.170Z,66.02
2023-03-24T23:52:03.953Z,66.74
2023-03-24T23:54:31.240Z,66.39
2023-03-24T23:56:57.910Z,66.57
2023-03-24T23:59:24.474Z,66.46
